sensor_id;sensor_type;location;lat;lon;timestamp;P1;durP1;ratioP1;P2;durP2;ratioP2
23206;SDS011;11773;52.570;13.052;2022-12-10T00:01:50;3.17;;;2.63;;
23206;SDS011;11773;52.570;13.052;2022-12-10T00:04:20;2.87;;;2.40;;
23206;SDS011;11773;52.570;13.052;2022-12-10T00:06:49;3.10;;;2.80;;
23206;SDS011;11773;52.570;13.052;2022-12-10T00:09:19;3.60;;;3.00;;
23206;SDS011;11773;52.570;13.052;2022-12-10T00:11:49;3.30;;;2.57;;
23206;SDS011;11773;52.570;13.052;2022-12-10T00:14:18;2.50;;;2.20;;
23206;SDS011;11773;52.570;13.052;2022-12-10T00:16:48;2.63;;;2.20;;
23206;SDS011;11773;52.570;13.052;2022-12-10T00:19:17;3.50;;;3.00;;
23206;SDS011;11773;52.570;13.052;2022-12-10T00:21:46;2.77;;;2.30;;
23206;SDS011;11773;52.570;13.052;2022-12-10T00:24:16;3.50;;;3.00;;
23206;SDS011;11773;52.570;13.052;2022-12-10T00:26:45;4.30;;;3.00;;
23206;SDS011;11773;52.570;13.052;2022-12-10T00:29:15;2.70;;;2.43;;
23206;SDS011;11773;52.570;13.052;2022-12-10T00:31:44;2.77;;;2.10;;
23206;SDS011;11773;52.570;13.052;2022-12-10T00:34:14;2.90;;;2.33;;
23206;SDS011;11773;52.570;13.052;2022-12-10T00:36:45;3.03;;;2.50;;
23206;SDS011;11773;52.570;13.052;2022-12-10T00:39:17;2.83;;;2.20;;
23206;SDS011;11773;52.570;13.052;2022-12-10T00:41:48;3.23;;;2.47;;
23206;SDS011;11773;52.570;13.052;2022-12-10T00:44:17;3.27;;;2.80;;
23206;SDS011;11773;52.570;13.052;2022-12-10T00:46:47;3.33;;;3.00;;
23206;SDS011;11773;52.570;13.052;2022-12-10T00:49:16;3.13;;;2.63;;
23206;SDS011;11773;52.570;13.052;2022-12-10T00:51:47;2.20;;;2.00;;
23206;SDS011;11773;52.570;13.052;2022-12-10T00:54:17;2.17;;;1.90;;
23206;SDS011;11773;52.570;13.052;2022-12-10T00:56:47;3.00;;;2.23;;
23206;SDS011;11773;52.570;13.052;2022-12-10T00:59:16;2.50;;;2.30;;
23206;SDS011;11773;52.570;13.052;2022-12-10T01:01:46;2.27;;;1.97;;
23206;SDS011;11773;52.570;13.052;2022-12-10T01:04:16;2.93;;;2.33;;
23206;SDS011;11773;52.570;13.052;2022-12-10T01:06:54;2.50;;;2.00;;
23206;SDS011;11773;52.570;13.052;2022-12-10T01:09:22;3.10;;;2.40;;
23206;SDS011;11773;52.570;13.052;2022-12-10T01:11:55;2.30;;;2.10;;
23206;SDS011;11773;52.570;13.052;2022-12-10T01:14:29;2.30;;;1.97;;
23206;SDS011;11773;52.570;13.052;2022-12-10T01:17:01;2.00;;;1.70;;
23206;SDS011;11773;52.570;13.052;2022-12-10T01:19:33;2.10;;;1.87;;
23206;SDS011;11773;52.570;13.052;2022-12-10T01:22:02;2.63;;;2.30;;
23206;SDS011;11773;52.570;13.052;2022-12-10T01:24:32;2.70;;;2.30;;
23206;SDS011;11773;52.570;13.052;2022-12-10T01:27:02;3.20;;;2.40;;
23206;SDS011;11773;52.570;13.052;2022-12-10T01:29:32;2.10;;;1.90;;
23206;SDS011;11773;52.570;13.052;2022-12-10T01:32:01;2.10;;;1.90;;
23206;SDS011;11773;52.570;13.052;2022-12-10T01:34:30;2.03;;;1.80;;
23206;SDS011;11773;52.570;13.052;2022-12-10T01:37:00;1.77;;;1.67;;
23206;SDS011;11773;52.570;13.052;2022-12-10T01:39:29;2.73;;;2.27;;
23206;SDS011;11773;52.570;13.052;2022-12-10T01:41:59;2.83;;;2.53;;
23206;SDS011;11773;52.570;13.052;2022-12-10T01:47:12;3.77;;;3.10;;
23206;SDS011;11773;52.570;13.052;2022-12-10T01:49:41;2.80;;;2.30;;
23206;SDS011;11773;52.570;13.052;2022-12-10T01:52:11;2.97;;;2.53;;
23206;SDS011;11773;52.570;13.052;2022-12-10T01:54:42;3.60;;;2.80;;
23206;SDS011;11773;52.570;13.052;2022-12-10T01:57:15;3.23;;;2.67;;
23206;SDS011;11773;52.570;13.052;2022-12-10T02:00:00;3.63;;;2.97;;
23206;SDS011;11773;52.570;13.052;2022-12-10T02:02:41;3.70;;;3.30;;
23206;SDS011;11773;52.570;13.052;2022-12-10T02:05:32;4.03;;;3.37;;
23206;SDS011;11773;52.570;13.052;2022-12-10T02:08:25;3.10;;;2.60;;
23206;SDS011;11773;52.570;13.052;2022-12-10T02:11:17;2.97;;;2.57;;
23206;SDS011;11773;52.570;13.052;2022-12-10T02:14:00;3.47;;;2.77;;
23206;SDS011;11773;52.570;13.052;2022-12-10T02:16:34;3.50;;;2.80;;
23206;SDS011;11773;52.570;13.052;2022-12-10T02:22:07;2.53;;;2.10;;
23206;SDS011;11773;52.570;13.052;2022-12-10T02:24:40;2.30;;;2.10;;
23206;SDS011;11773;52.570;13.052;2022-12-10T02:27:17;2.73;;;2.33;;
23206;SDS011;11773;52.570;13.052;2022-12-10T02:29:48;2.47;;;2.03;;
23206;SDS011;11773;52.570;13.052;2022-12-10T02:32:26;3.07;;;2.63;;
23206;SDS011;11773;52.570;13.052;2022-12-10T02:34:57;2.43;;;2.03;;
23206;SDS011;11773;52.570;13.052;2022-12-10T02:37:34;2.77;;;2.17;;
23206;SDS011;11773;52.570;13.052;2022-12-10T02:40:10;2.40;;;1.93;;
23206;SDS011;11773;52.570;13.052;2022-12-10T02:42:45;2.03;;;1.50;;
23206;SDS011;11773;52.570;13.052;2022-12-10T02:45:19;1.63;;;1.53;;
23206;SDS011;11773;52.570;13.052;2022-12-10T02:47:54;1.43;;;1.33;;
23206;SDS011;11773;52.570;13.052;2022-12-10T02:50:27;3.30;;;2.60;;
23206;SDS011;11773;52.570;13.052;2022-12-10T02:52:56;3.50;;;2.37;;
23206;SDS011;11773;52.570;13.052;2022-12-10T02:55:26;2.10;;;1.87;;
23206;SDS011;11773;52.570;13.052;2022-12-10T03:00:48;2.30;;;2.10;;
23206;SDS011;11773;52.570;13.052;2022-12-10T03:06:40;2.23;;;2.00;;
23206;SDS011;11773;52.570;13.052;2022-12-10T03:09:26;2.53;;;2.13;;
23206;SDS011;11773;52.570;13.052;2022-12-10T03:11:59;2.20;;;2.00;;
23206;SDS011;11773;52.570;13.052;2022-12-10T03:14:35;1.93;;;1.67;;
23206;SDS011;11773;52.570;13.052;2022-12-10T03:17:05;2.10;;;1.90;;
23206;SDS011;11773;52.570;13.052;2022-12-10T03:19:37;2.07;;;1.83;;
23206;SDS011;11773;52.570;13.052;2022-12-10T03:22:14;2.00;;;1.75;;
23206;SDS011;11773;52.570;13.052;2022-12-10T03:24:47;2.93;;;2.40;;
23206;SDS011;11773;52.570;13.052;2022-12-10T03:27:19;3.50;;;3.00;;
23206;SDS011;11773;52.570;13.052;2022-12-10T03:29:52;4.67;;;2.90;;
23206;SDS011;11773;52.570;13.052;2022-12-10T03:32:25;3.53;;;2.73;;
23206;SDS011;11773;52.570;13.052;2022-12-10T03:34:57;2.67;;;2.20;;
23206;SDS011;11773;52.570;13.052;2022-12-10T03:37:29;2.30;;;2.10;;
23206;SDS011;11773;52.570;13.052;2022-12-10T03:39:59;1.73;;;1.63;;
23206;SDS011;11773;52.570;13.052;2022-12-10T03:42:29;2.53;;;2.27;;
23206;SDS011;11773;52.570;13.052;2022-12-10T03:44:59;2.47;;;2.20;;
23206;SDS011;11773;52.570;13.052;2022-12-10T03:47:28;2.27;;;2.03;;
23206;SDS011;11773;52.570;13.052;2022-12-10T03:49:58;2.50;;;1.90;;
23206;SDS011;11773;52.570;13.052;2022-12-10T03:52:27;2.17;;;1.97;;
23206;SDS011;11773;52.570;13.052;2022-12-10T03:54:57;2.47;;;2.17;;
23206;SDS011;11773;52.570;13.052;2022-12-10T03:57:26;3.53;;;2.93;;
23206;SDS011;11773;52.570;13.052;2022-12-10T03:59:56;3.77;;;2.77;;
23206;SDS011;11773;52.570;13.052;2022-12-10T04:02:25;2.20;;;1.97;;
23206;SDS011;11773;52.570;13.052;2022-12-10T04:04:55;2.40;;;2.03;;
23206;SDS011;11773;52.570;13.052;2022-12-10T04:07:24;2.20;;;1.87;;
23206;SDS011;11773;52.570;13.052;2022-12-10T04:09:54;2.57;;;1.97;;
23206;SDS011;11773;52.570;13.052;2022-12-10T04:12:23;2.57;;;2.10;;
23206;SDS011;11773;52.570;13.052;2022-12-10T04:14:53;2.40;;;2.20;;
23206;SDS011;11773;52.570;13.052;2022-12-10T04:17:40;2.40;;;2.20;;
23206;SDS011;11773;52.570;13.052;2022-12-10T04:20:09;2.13;;;1.80;;
23206;SDS011;11773;52.570;13.052;2022-12-10T04:22:57;1.60;;;1.50;;
23206;SDS011;11773;52.570;13.052;2022-12-10T04:25:44;2.13;;;1.63;;
23206;SDS011;11773;52.570;13.052;2022-12-10T04:28:32;1.90;;;1.50;;
23206;SDS011;11773;52.570;13.052;2022-12-10T04:31:01;1.83;;;1.73;;
23206;SDS011;11773;52.570;13.052;2022-12-10T04:33:31;1.80;;;1.60;;
23206;SDS011;11773;52.570;13.052;2022-12-10T04:36:00;1.50;;;1.30;;
23206;SDS011;11773;52.570;13.052;2022-12-10T04:38:30;2.03;;;1.60;;
23206;SDS011;11773;52.570;13.052;2022-12-10T04:40:59;1.93;;;1.70;;
23206;SDS011;11773;52.570;13.052;2022-12-10T04:43:28;2.27;;;2.13;;
23206;SDS011;11773;52.570;13.052;2022-12-10T04:45:58;2.13;;;1.93;;
23206;SDS011;11773;52.570;13.052;2022-12-10T04:48:27;2.10;;;1.90;;
23206;SDS011;11773;52.570;13.052;2022-12-10T04:50:57;2.00;;;1.80;;
23206;SDS011;11773;52.570;13.052;2022-12-10T04:53:26;2.10;;;1.90;;
23206;SDS011;11773;52.570;13.052;2022-12-10T04:55:56;1.90;;;1.73;;
23206;SDS011;11773;52.570;13.052;2022-12-10T04:58:25;2.00;;;1.80;;
23206;SDS011;11773;52.570;13.052;2022-12-10T05:01:04;1.67;;;1.57;;
23206;SDS011;11773;52.570;13.052;2022-12-10T05:03:36;2.00;;;1.80;;
23206;SDS011;11773;52.570;13.052;2022-12-10T05:06:08;1.63;;;1.53;;
23206;SDS011;11773;52.570;13.052;2022-12-10T05:08:40;1.93;;;1.50;;
23206;SDS011;11773;52.570;13.052;2022-12-10T05:11:11;2.07;;;1.87;;
23206;SDS011;11773;52.570;13.052;2022-12-10T05:13:45;1.90;;;1.70;;
23206;SDS011;11773;52.570;13.052;2022-12-10T05:16:15;2.10;;;1.90;;
23206;SDS011;11773;52.570;13.052;2022-12-10T05:18:48;1.60;;;1.50;;
23206;SDS011;11773;52.570;13.052;2022-12-10T05:21:19;2.03;;;1.63;;
23206;SDS011;11773;52.570;13.052;2022-12-10T05:23:51;2.13;;;1.73;;
23206;SDS011;11773;52.570;13.052;2022-12-10T05:26:22;2.13;;;1.73;;
23206;SDS011;11773;52.570;13.052;2022-12-10T05:28:53;1.87;;;1.67;;
23206;SDS011;11773;52.570;13.052;2022-12-10T05:31:25;2.23;;;2.03;;
23206;SDS011;11773;52.570;13.052;2022-12-10T05:33:57;2.23;;;1.63;;
23206;SDS011;11773;52.570;13.052;2022-12-10T05:36:28;2.20;;;1.83;;
23206;SDS011;11773;52.570;13.052;2022-12-10T05:38:59;2.53;;;1.77;;
23206;SDS011;11773;52.570;13.052;2022-12-10T05:41:30;1.93;;;1.60;;
23206;SDS011;11773;52.570;13.052;2022-12-10T05:44:05;2.57;;;2.10;;
23206;SDS011;11773;52.570;13.052;2022-12-10T05:46:35;1.90;;;1.70;;
23206;SDS011;11773;52.570;13.052;2022-12-10T05:49:05;2.30;;;2.00;;
23206;SDS011;11773;52.570;13.052;2022-12-10T05:51:36;2.07;;;1.63;;
23206;SDS011;11773;52.570;13.052;2022-12-10T05:54:06;1.93;;;1.70;;
23206;SDS011;11773;52.570;13.052;2022-12-10T05:56:37;1.90;;;1.70;;
23206;SDS011;11773;52.570;13.052;2022-12-10T05:59:06;1.77;;;1.50;;
23206;SDS011;11773;52.570;13.052;2022-12-10T06:01:38;2.50;;;2.10;;
23206;SDS011;11773;52.570;13.052;2022-12-10T06:04:08;1.70;;;1.60;;
23206;SDS011;11773;52.570;13.052;2022-12-10T06:06:38;1.93;;;1.70;;
23206;SDS011;11773;52.570;13.052;2022-12-10T06:09:11;2.30;;;1.97;;
23206;SDS011;11773;52.570;13.052;2022-12-10T06:11:41;2.10;;;1.80;;
23206;SDS011;11773;52.570;13.052;2022-12-10T06:14:10;2.27;;;1.97;;
23206;SDS011;11773;52.570;13.052;2022-12-10T06:16:40;1.50;;;1.40;;
23206;SDS011;11773;52.570;13.052;2022-12-10T06:19:09;1.77;;;1.50;;
23206;SDS011;11773;52.570;13.052;2022-12-10T06:21:39;1.90;;;1.70;;
23206;SDS011;11773;52.570;13.052;2022-12-10T06:24:09;1.90;;;1.63;;
23206;SDS011;11773;52.570;13.052;2022-12-10T06:26:38;1.40;;;1.30;;
23206;SDS011;11773;52.570;13.052;2022-12-10T06:29:08;2.13;;;1.93;;
23206;SDS011;11773;52.570;13.052;2022-12-10T06:31:38;1.83;;;1.60;;
23206;SDS011;11773;52.570;13.052;2022-12-10T06:34:07;1.83;;;1.70;;
23206;SDS011;11773;52.570;13.052;2022-12-10T06:36:37;2.00;;;1.70;;
23206;SDS011;11773;52.570;13.052;2022-12-10T06:39:06;2.77;;;2.13;;
23206;SDS011;11773;52.570;13.052;2022-12-10T06:41:36;2.03;;;1.80;;
23206;SDS011;11773;52.570;13.052;2022-12-10T06:44:09;2.23;;;1.80;;
23206;SDS011;11773;52.570;13.052;2022-12-10T06:46:39;2.50;;;2.03;;
23206;SDS011;11773;52.570;13.052;2022-12-10T06:49:09;2.07;;;1.67;;
23206;SDS011;11773;52.570;13.052;2022-12-10T06:51:39;2.00;;;1.80;;
23206;SDS011;11773;52.570;13.052;2022-12-10T06:54:08;2.20;;;1.97;;
23206;SDS011;11773;52.570;13.052;2022-12-10T06:56:37;2.17;;;1.80;;
23206;SDS011;11773;52.570;13.052;2022-12-10T06:59:07;1.60;;;1.50;;
23206;SDS011;11773;52.570;13.052;2022-12-10T07:01:37;1.70;;;1.60;;
23206;SDS011;11773;52.570;13.052;2022-12-10T07:04:07;1.90;;;1.60;;
23206;SDS011;11773;52.570;13.052;2022-12-10T07:06:37;1.70;;;1.40;;
23206;SDS011;11773;52.570;13.052;2022-12-10T07:09:07;1.40;;;1.23;;
23206;SDS011;11773;52.570;13.052;2022-12-10T07:11:39;1.43;;;1.33;;
23206;SDS011;11773;52.570;13.052;2022-12-10T07:14:14;2.47;;;2.27;;
23206;SDS011;11773;52.570;13.052;2022-12-10T07:16:43;2.27;;;1.90;;
23206;SDS011;11773;52.570;13.052;2022-12-10T07:19:12;2.70;;;2.20;;
23206;SDS011;11773;52.570;13.052;2022-12-10T07:21:42;2.25;;;1.92;;
23206;SDS011;11773;52.570;13.052;2022-12-10T07:24:18;1.90;;;1.60;;
23206;SDS011;11773;52.570;13.052;2022-12-10T07:26:46;2.33;;;1.90;;
23206;SDS011;11773;52.570;13.052;2022-12-10T07:29:16;3.27;;;2.70;;
23206;SDS011;11773;52.570;13.052;2022-12-10T07:31:49;2.57;;;2.27;;
23206;SDS011;11773;52.570;13.052;2022-12-10T07:34:18;1.83;;;1.63;;
23206;SDS011;11773;52.570;13.052;2022-12-10T07:36:48;2.13;;;1.63;;
23206;SDS011;11773;52.570;13.052;2022-12-10T07:39:17;2.27;;;2.07;;
23206;SDS011;11773;52.570;13.052;2022-12-10T07:41:52;1.40;;;1.30;;
23206;SDS011;11773;52.570;13.052;2022-12-10T07:44:20;2.00;;;1.70;;
23206;SDS011;11773;52.570;13.052;2022-12-10T07:46:53;2.30;;;1.97;;
23206;SDS011;11773;52.570;13.052;2022-12-10T07:49:23;2.37;;;2.03;;
23206;SDS011;11773;52.570;13.052;2022-12-10T07:51:52;2.43;;;1.80;;
23206;SDS011;11773;52.570;13.052;2022-12-10T07:54:22;2.83;;;2.17;;
23206;SDS011;11773;52.570;13.052;2022-12-10T07:56:51;1.70;;;1.60;;
23206;SDS011;11773;52.570;13.052;2022-12-10T07:59:21;3.10;;;2.00;;
23206;SDS011;11773;52.570;13.052;2022-12-10T08:01:50;2.10;;;1.90;;
23206;SDS011;11773;52.570;13.052;2022-12-10T08:04:20;2.13;;;1.80;;
23206;SDS011;11773;52.570;13.052;2022-12-10T08:06:50;2.20;;;1.83;;
23206;SDS011;11773;52.570;13.052;2022-12-10T08:09:22;1.60;;;1.40;;
23206;SDS011;11773;52.570;13.052;2022-12-10T08:11:52;1.93;;;1.60;;
23206;SDS011;11773;52.570;13.052;2022-12-10T08:14:21;2.30;;;1.97;;
23206;SDS011;11773;52.570;13.052;2022-12-10T08:16:51;1.57;;;1.47;;
23206;SDS011;11773;52.570;13.052;2022-12-10T08:19:20;2.13;;;1.93;;
23206;SDS011;11773;52.570;13.052;2022-12-10T08:21:52;2.20;;;1.80;;
23206;SDS011;11773;52.570;13.052;2022-12-10T08:24:21;2.50;;;2.30;;
23206;SDS011;11773;52.570;13.052;2022-12-10T08:26:51;2.93;;;2.60;;
23206;SDS011;11773;52.570;13.052;2022-12-10T08:29:20;2.50;;;2.20;;
23206;SDS011;11773;52.570;13.052;2022-12-10T08:31:53;2.80;;;2.20;;
23206;SDS011;11773;52.570;13.052;2022-12-10T08:34:22;2.47;;;2.17;;
23206;SDS011;11773;52.570;13.052;2022-12-10T08:36:52;2.20;;;2.00;;
23206;SDS011;11773;52.570;13.052;2022-12-10T08:39:21;2.40;;;2.10;;
23206;SDS011;11773;52.570;13.052;2022-12-10T08:41:54;2.10;;;1.90;;
23206;SDS011;11773;52.570;13.052;2022-12-10T08:44:23;1.70;;;1.60;;
23206;SDS011;11773;52.570;13.052;2022-12-10T08:46:53;1.60;;;1.50;;
23206;SDS011;11773;52.570;13.052;2022-12-10T08:49:22;2.13;;;1.90;;
23206;SDS011;11773;52.570;13.052;2022-12-10T08:51:52;2.80;;;2.40;;
23206;SDS011;11773;52.570;13.052;2022-12-10T08:54:21;2.87;;;2.30;;
23206;SDS011;11773;52.570;13.052;2022-12-10T08:56:51;2.50;;;2.30;;
23206;SDS011;11773;52.570;13.052;2022-12-10T08:59:20;3.33;;;3.03;;
23206;SDS011;11773;52.570;13.052;2022-12-10T09:01:51;2.70;;;2.20;;
23206;SDS011;11773;52.570;13.052;2022-12-10T09:04:22;2.80;;;2.30;;
23206;SDS011;11773;52.570;13.052;2022-12-10T09:06:51;3.10;;;2.20;;
23206;SDS011;11773;52.570;13.052;2022-12-10T09:09:21;2.60;;;2.27;;
23206;SDS011;11773;52.570;13.052;2022-12-10T09:11:50;2.63;;;2.40;;
23206;SDS011;11773;52.570;13.052;2022-12-10T09:14:20;2.77;;;2.47;;
23206;SDS011;11773;52.570;13.052;2022-12-10T09:16:50;2.57;;;2.33;;
23206;SDS011;11773;52.570;13.052;2022-12-10T09:19:20;2.20;;;2.00;;
23206;SDS011;11773;52.570;13.052;2022-12-10T09:21:49;2.37;;;2.17;;
23206;SDS011;11773;52.570;13.052;2022-12-10T09:24:19;2.30;;;1.90;;
23206;SDS011;11773;52.570;13.052;2022-12-10T09:26:48;3.03;;;2.63;;
23206;SDS011;11773;52.570;13.052;2022-12-10T09:29:18;3.10;;;2.80;;
23206;SDS011;11773;52.570;13.052;2022-12-10T09:31:53;3.40;;;2.70;;
23206;SDS011;11773;52.570;13.052;2022-12-10T09:34:19;2.40;;;2.20;;
23206;SDS011;11773;52.570;13.052;2022-12-10T09:36:49;2.20;;;2.00;;
23206;SDS011;11773;52.570;13.052;2022-12-10T09:39:18;3.10;;;2.80;;
23206;SDS011;11773;52.570;13.052;2022-12-10T09:48:05;2.57;;;2.30;;
23206;SDS011;11773;52.570;13.052;2022-12-10T09:51:19;4.43;;;3.40;;
23206;SDS011;11773;52.570;13.052;2022-12-10T09:53:57;3.33;;;3.00;;
23206;SDS011;11773;52.570;13.052;2022-12-10T09:56:29;3.80;;;3.30;;
23206;SDS011;11773;52.570;13.052;2022-12-10T09:59:12;3.40;;;3.10;;
23206;SDS011;11773;52.570;13.052;2022-12-10T10:01:43;3.07;;;2.77;;
23206;SDS011;11773;52.570;13.052;2022-12-10T10:04:16;3.60;;;3.07;;
23206;SDS011;11773;52.570;13.052;2022-12-10T10:06:45;3.20;;;2.63;;
23206;SDS011;11773;52.570;13.052;2022-12-10T10:09:15;3.33;;;3.00;;
23206;SDS011;11773;52.570;13.052;2022-12-10T10:11:46;4.73;;;3.90;;
23206;SDS011;11773;52.570;13.052;2022-12-10T10:14:21;3.27;;;2.83;;
23206;SDS011;11773;52.570;13.052;2022-12-10T10:16:59;3.13;;;2.83;;
23206;SDS011;11773;52.570;13.052;2022-12-10T10:19:28;2.80;;;2.50;;
23206;SDS011;11773;52.570;13.052;2022-12-10T10:22:02;3.33;;;2.80;;
23206;SDS011;11773;52.570;13.052;2022-12-10T10:24:34;2.93;;;2.63;;
23206;SDS011;11773;52.570;13.052;2022-12-10T10:27:16;2.60;;;2.40;;
23206;SDS011;11773;52.570;13.052;2022-12-10T10:29:55;3.40;;;3.00;;
23206;SDS011;11773;52.570;13.052;2022-12-10T10:32:25;4.20;;;3.10;;
23206;SDS011;11773;52.570;13.052;2022-12-10T10:34:58;3.87;;;3.23;;
23206;SDS011;11773;52.570;13.052;2022-12-10T10:37:29;4.00;;;3.30;;
23206;SDS011;11773;52.570;13.052;2022-12-10T10:40:03;4.30;;;3.70;;
23206;SDS011;11773;52.570;13.052;2022-12-10T10:42:40;3.43;;;2.87;;
23206;SDS011;11773;52.570;13.052;2022-12-10T10:50:48;3.20;;;2.90;;
23206;SDS011;11773;52.570;13.052;2022-12-10T10:53:41;2.63;;;2.43;;
23206;SDS011;11773;52.570;13.052;2022-12-10T10:56:22;3.43;;;2.93;;
23206;SDS011;11773;52.570;13.052;2022-12-10T10:59:22;3.23;;;2.40;;
23206;SDS011;11773;52.570;13.052;2022-12-10T11:01:51;3.57;;;3.17;;
23206;SDS011;11773;52.570;13.052;2022-12-10T11:07:19;3.77;;;3.00;;
23206;SDS011;11773;52.570;13.052;2022-12-10T11:10:01;2.40;;;2.20;;
23206;SDS011;11773;52.570;13.052;2022-12-10T11:12:35;2.20;;;2.00;;
23206;SDS011;11773;52.570;13.052;2022-12-10T11:15:27;2.40;;;2.20;;
23206;SDS011;11773;52.570;13.052;2022-12-10T11:17:54;4.43;;;2.80;;
23206;SDS011;11773;52.570;13.052;2022-12-10T11:20:26;6.13;;;3.13;;
23206;SDS011;11773;52.570;13.052;2022-12-10T11:23:01;4.03;;;3.20;;
23206;SDS011;11773;52.570;13.052;2022-12-10T11:25:47;4.30;;;3.37;;
23206;SDS011;11773;52.570;13.052;2022-12-10T11:28:52;3.60;;;2.93;;
23206;SDS011;11773;52.570;13.052;2022-12-10T11:31:27;4.07;;;3.30;;
23206;SDS011;11773;52.570;13.052;2022-12-10T11:37:49;4.03;;;3.10;;
23206;SDS011;11773;52.570;13.052;2022-12-10T11:46:14;3.03;;;2.73;;
23206;SDS011;11773;52.570;13.052;2022-12-10T11:49:07;3.27;;;2.60;;
23206;SDS011;11773;52.570;13.052;2022-12-10T11:52:01;3.80;;;2.90;;
23206;SDS011;11773;52.570;13.052;2022-12-10T11:54:51;3.50;;;3.00;;
23206;SDS011;11773;52.570;13.052;2022-12-10T11:57:38;3.03;;;2.60;;
23206;SDS011;11773;52.570;13.052;2022-12-10T12:00:52;3.23;;;2.73;;
23206;SDS011;11773;52.570;13.052;2022-12-10T12:06:39;4.53;;;3.67;;
23206;SDS011;11773;52.570;13.052;2022-12-10T12:09:30;2.63;;;2.37;;
23206;SDS011;11773;52.570;13.052;2022-12-10T12:12:09;2.60;;;2.37;;
23206;SDS011;11773;52.570;13.052;2022-12-10T12:15:03;2.13;;;1.93;;
23206;SDS011;11773;52.570;13.052;2022-12-10T12:17:55;2.87;;;2.57;;
23206;SDS011;11773;52.570;13.052;2022-12-10T12:26:38;2.57;;;2.37;;
23206;SDS011;11773;52.570;13.052;2022-12-10T12:29:25;2.20;;;2.00;;
23206;SDS011;11773;52.570;13.052;2022-12-10T12:32:20;2.20;;;2.00;;
23206;SDS011;11773;52.570;13.052;2022-12-10T12:37:40;2.57;;;2.30;;
23206;SDS011;11773;52.570;13.052;2022-12-10T12:42:59;3.10;;;2.80;;
23206;SDS011;11773;52.570;13.052;2022-12-10T12:45:39;3.90;;;3.40;;
23206;SDS011;11773;52.570;13.052;2022-12-10T12:48:20;3.33;;;2.83;;
23206;SDS011;11773;52.570;13.052;2022-12-10T12:53:47;2.50;;;2.20;;
23206;SDS011;11773;52.570;13.052;2022-12-10T12:59:16;3.10;;;2.80;;
23206;SDS011;11773;52.570;13.052;2022-12-10T13:04:52;3.70;;;2.67;;
23206;SDS011;11773;52.570;13.052;2022-12-10T13:12:46;2.53;;;2.10;;
23206;SDS011;11773;52.570;13.052;2022-12-10T13:15:32;2.60;;;2.10;;
23206;SDS011;11773;52.570;13.052;2022-12-10T13:18:18;2.03;;;1.80;;
23206;SDS011;11773;52.570;13.052;2022-12-10T13:26:03;2.93;;;2.43;;
23206;SDS011;11773;52.570;13.052;2022-12-10T13:36:34;1.67;;;1.57;;
23206;SDS011;11773;52.570;13.052;2022-12-10T13:45:01;1.70;;;1.60;;
23206;SDS011;11773;52.570;13.052;2022-12-10T13:50:20;1.30;;;1.20;;
23206;SDS011;11773;52.570;13.052;2022-12-10T13:59:14;1.60;;;1.40;;
23206;SDS011;11773;52.570;13.052;2022-12-10T14:02:10;1.60;;;1.47;;
23206;SDS011;11773;52.570;13.052;2022-12-10T14:05:23;1.40;;;1.20;;
23206;SDS011;11773;52.570;13.052;2022-12-10T14:08:09;1.70;;;1.60;;
23206;SDS011;11773;52.570;13.052;2022-12-10T14:10:42;1.70;;;1.60;;
23206;SDS011;11773;52.570;13.052;2022-12-10T14:13:15;2.17;;;1.83;;
23206;SDS011;11773;52.570;13.052;2022-12-10T14:15:51;1.57;;;1.43;;
23206;SDS011;11773;52.570;13.052;2022-12-10T14:18:24;1.53;;;1.43;;
23206;SDS011;11773;52.570;13.052;2022-12-10T14:20:57;1.80;;;1.50;;
23206;SDS011;11773;52.570;13.052;2022-12-10T14:23:30;2.10;;;1.67;;
23206;SDS011;11773;52.570;13.052;2022-12-10T14:26:10;1.57;;;1.27;;
23206;SDS011;11773;52.570;13.052;2022-12-10T14:28:50;1.77;;;1.50;;
23206;SDS011;11773;52.570;13.052;2022-12-10T14:31:30;1.40;;;1.30;;
23206;SDS011;11773;52.570;13.052;2022-12-10T14:34:12;1.20;;;1.10;;
23206;SDS011;11773;52.570;13.052;2022-12-10T14:36:46;1.30;;;1.20;;
23206;SDS011;11773;52.570;13.052;2022-12-10T14:39:27;1.30;;;1.20;;
23206;SDS011;11773;52.570;13.052;2022-12-10T14:42:02;1.20;;;1.10;;
23206;SDS011;11773;52.570;13.052;2022-12-10T14:44:34;1.67;;;1.40;;
23206;SDS011;11773;52.570;13.052;2022-12-10T14:47:13;2.27;;;2.07;;
23206;SDS011;11773;52.570;13.052;2022-12-10T14:49:44;2.60;;;2.40;;
23206;SDS011;11773;52.570;13.052;2022-12-10T14:52:18;2.23;;;1.93;;
23206;SDS011;11773;52.570;13.052;2022-12-10T14:54:50;1.60;;;1.40;;
23206;SDS011;11773;52.570;13.052;2022-12-10T14:57:24;1.73;;;1.60;;
23206;SDS011;11773;52.570;13.052;2022-12-10T15:02:38;1.43;;;1.33;;
23206;SDS011;11773;52.570;13.052;2022-12-10T15:08:07;1.67;;;1.57;;
23206;SDS011;11773;52.570;13.052;2022-12-10T15:10:48;1.30;;;1.20;;
23206;SDS011;11773;52.570;13.052;2022-12-10T15:13:21;1.60;;;1.50;;
23206;SDS011;11773;52.570;13.052;2022-12-10T15:16:19;1.47;;;1.37;;
23206;SDS011;11773;52.570;13.052;2022-12-10T15:19:07;1.43;;;1.30;;
23206;SDS011;11773;52.570;13.052;2022-12-10T15:21:46;1.33;;;1.23;;
23206;SDS011;11773;52.570;13.052;2022-12-10T15:24:25;1.00;;;0.90;;
23206;SDS011;11773;52.570;13.052;2022-12-10T15:27:18;1.40;;;1.23;;
23206;SDS011;11773;52.570;13.052;2022-12-10T15:29:49;1.40;;;0.90;;
23206;SDS011;11773;52.570;13.052;2022-12-10T15:32:21;0.90;;;0.90;;
23206;SDS011;11773;52.570;13.052;2022-12-10T15:34:58;0.90;;;0.80;;
23206;SDS011;11773;52.570;13.052;2022-12-10T15:37:37;1.20;;;1.00;;
23206;SDS011;11773;52.570;13.052;2022-12-10T15:40:19;1.17;;;1.00;;
23206;SDS011;11773;52.570;13.052;2022-12-10T15:42:43;1.20;;;1.10;;
23206;SDS011;11773;52.570;13.052;2022-12-10T15:45:23;1.33;;;1.20;;
23206;SDS011;11773;52.570;13.052;2022-12-10T15:50:57;0.80;;;0.80;;
23206;SDS011;11773;52.570;13.052;2022-12-10T15:53:34;1.17;;;1.07;;
23206;SDS011;11773;52.570;13.052;2022-12-10T15:56:05;1.20;;;1.10;;
23206;SDS011;11773;52.570;13.052;2022-12-10T15:58:35;1.03;;;0.93;;
23206;SDS011;11773;52.570;13.052;2022-12-10T16:01:04;0.90;;;0.90;;
23206;SDS011;11773;52.570;13.052;2022-12-10T16:03:36;1.20;;;1.10;;
23206;SDS011;11773;52.570;13.052;2022-12-10T16:06:07;1.30;;;1.10;;
23206;SDS011;11773;52.570;13.052;2022-12-10T16:08:38;1.40;;;1.30;;
23206;SDS011;11773;52.570;13.052;2022-12-10T16:11:18;1.53;;;1.20;;
23206;SDS011;11773;52.570;13.052;2022-12-10T16:13:51;1.30;;;1.20;;
23206;SDS011;11773;52.570;13.052;2022-12-10T16:16:23;1.30;;;1.20;;
23206;SDS011;11773;52.570;13.052;2022-12-10T16:18:54;1.30;;;1.10;;
23206;SDS011;11773;52.570;13.052;2022-12-10T16:21:23;1.13;;;1.03;;
23206;SDS011;11773;52.570;13.052;2022-12-10T16:23:53;1.47;;;1.37;;
23206;SDS011;11773;52.570;13.052;2022-12-10T16:26:22;1.97;;;1.27;;
23206;SDS011;11773;52.570;13.052;2022-12-10T16:28:52;1.57;;;1.23;;
23206;SDS011;11773;52.570;13.052;2022-12-10T16:31:21;1.60;;;1.47;;
23206;SDS011;11773;52.570;13.052;2022-12-10T16:33:51;1.37;;;1.23;;
23206;SDS011;11773;52.570;13.052;2022-12-10T16:36:22;1.63;;;1.50;;
23206;SDS011;11773;52.570;13.052;2022-12-10T16:38:51;1.70;;;1.53;;
23206;SDS011;11773;52.570;13.052;2022-12-10T16:41:21;1.60;;;1.50;;
23206;SDS011;11773;52.570;13.052;2022-12-10T16:43:52;1.57;;;1.47;;
23206;SDS011;11773;52.570;13.052;2022-12-10T16:46:22;1.40;;;1.30;;
23206;SDS011;11773;52.570;13.052;2022-12-10T16:48:52;1.47;;;1.37;;
23206;SDS011;11773;52.570;13.052;2022-12-10T16:51:22;1.70;;;1.60;;
23206;SDS011;11773;52.570;13.052;2022-12-10T16:53:59;1.63;;;1.53;;